Terminal Aerodrome Forecast
Issued by NWS Lake Charles, LA

Home | Current Version | Previous Version | Text Only | Print | Product List | Glossary On
Versions: 1 2 3 4 5 6 7 8 9 10 11 12 13 14 15 16 17
609
FTUS44 KLCH 251612 AAA
TAFBPT
TAF AMD
KBPT 251612Z 2516/2612 15007KT P6SM VCTS BKN025 BKN035CB
      TEMPO 2518/2522 2SM TSRA OVC015CB
     FM260200 VRB03KT P6SM BKN250=

USA.gov is the U.S. government's official web portal to all federal, state and local government web resources and services.